createdAt,value
2022-12-05T00:02:23.618Z,3.83
2022-12-05T00:04:50.138Z,3.50
2022-12-05T00:07:16.668Z,3.30
2022-12-05T00:09:43.257Z,3.20
2022-12-05T00:12:09.759Z,3.13
2022-12-05T00:14:36.303Z,3.53
2022-12-05T00:17:03.020Z,3.67
2022-12-05T00:19:29.552Z,3.60
2022-12-05T00:21:57.720Z,3.33
2022-12-05T00:24:24.410Z,3.45
2022-12-05T00:26:50.890Z,3.53
2022-12-05T00:29:17.351Z,3.95
2022-12-05T00:31:44.118Z,3.28
2022-12-05T00:34:10.801Z,3.65
2022-12-05T00:36:37.322Z,3.20
2022-12-05T00:39:10.931Z,3.35
2022-12-05T00:41:37.611Z,3.42
2022-12-05T00:44:04.382Z,3.90
2022-12-05T00:46:31.794Z,3.25
2022-12-05T00:48:59.250Z,3.50
2022-12-05T00:51:28.312Z,3.85
2022-12-05T00:53:55.488Z,3.20
2022-12-05T00:56:23.078Z,3.22
2022-12-05T00:58:50.394Z,3.55
2022-12-05T01:01:24.043Z,3.63
2022-12-05T01:03:52.311Z,3.38
2022-12-05T01:06:18.829Z,3.33
2022-12-05T01:08:45.351Z,3.08
2022-12-05T01:11:14.180Z,3.90
2022-12-05T01:13:40.799Z,3.53
2022-12-05T01:16:13.812Z,3.35
2022-12-05T01:18:40.362Z,3.58
2022-12-05T01:21:07.092Z,3.30
2022-12-05T01:23:33.600Z,4.30
2022-12-05T01:26:00.104Z,3.53
2022-12-05T01:28:26.660Z,3.72
2022-12-05T01:30:53.230Z,3.40
2022-12-05T01:33:19.727Z,3.63
2022-12-05T01:35:46.216Z,3.45
2022-12-05T01:38:13.211Z,3.47
2022-12-05T01:40:40.074Z,3.53
2022-12-05T01:43:10.831Z,3.28
2022-12-05T01:45:39.359Z,3.60
2022-12-05T01:48:07.701Z,3.70
2022-12-05T01:50:35.269Z,3.58
2022-12-05T01:53:02.523Z,3.63
2022-12-05T01:55:29.081Z,3.45
2022-12-05T01:57:56.701Z,3.55
2022-12-05T02:00:23.690Z,3.50
2022-12-05T02:02:56.622Z,3.50
2022-12-05T02:05:30.470Z,3.58
2022-12-05T02:08:01.515Z,3.30
2022-12-05T02:10:29.040Z,3.42
2022-12-05T02:12:59.958Z,3.55
2022-12-05T02:15:35.430Z,3.22
2022-12-05T02:18:25.102Z,3.45
2022-12-05T02:20:51.580Z,3.75
2022-12-05T02:23:36.931Z,3.30
2022-12-05T02:26:22.094Z,3.20
2022-12-05T02:28:51.588Z,3.50
2022-12-05T02:31:30.373Z,3.17
2022-12-05T02:33:59.771Z,3.20
2022-12-05T02:36:40.049Z,3.55
2022-12-05T02:39:25.339Z,3.15
2022-12-05T02:41:51.938Z,3.50
2022-12-05T02:44:21.560Z,3.22
2022-12-05T02:46:49.678Z,3.30
2022-12-05T02:49:19.610Z,3.08
2022-12-05T02:51:48.452Z,2.88
2022-12-05T02:54:17.869Z,3.20
2022-12-05T02:56:46.183Z,3.13
2022-12-05T02:59:12.750Z,3.22
2022-12-05T03:01:39.838Z,3.00
2022-12-05T03:04:08.119Z,3.35
2022-12-05T03:06:40.802Z,3.08
2022-12-05T03:09:10.300Z,3.20
2022-12-05T03:11:55.829Z,3.15
2022-12-05T03:14:34.738Z,3.38
2022-12-05T03:17:03.152Z,3.42
2022-12-05T03:19:48.279Z,3.38
2022-12-05T03:22:21.591Z,3.10
2022-12-05T03:24:48.662Z,3.17
2022-12-05T03:27:35.459Z,2.88
2022-12-05T03:30:10.311Z,3.25
2022-12-05T03:32:36.800Z,3.42
2022-12-05T03:35:18.340Z,3.17
2022-12-05T03:37:50.419Z,3.20
2022-12-05T03:40:52.293Z,3.13
2022-12-05T03:43:24.402Z,3.30
2022-12-05T03:45:58.450Z,3.45
2022-12-05T03:48:30.490Z,3.45
2022-12-05T03:50:58.550Z,3.20
2022-12-05T03:53:27.831Z,2.70
2022-12-05T03:56:04.355Z,3.03
2022-12-05T03:58:37.959Z,2.97
2022-12-05T04:01:07.113Z,2.28
2022-12-05T04:03:39.977Z,2.67
2022-12-05T04:06:10.481Z,2.80
2022-12-05T04:08:43.325Z,2.85
2022-12-05T04:11:23.019Z,2.92
2022-12-05T04:13:52.222Z,3.03
2022-12-05T04:16:45.190Z,3.10
2022-12-05T04:19:56.578Z,2.67
2022-12-05T04:22:25.032Z,3.03
2022-12-05T04:25:11.340Z,2.97
2022-12-05T04:27:56.680Z,2.70
2022-12-05T04:30:24.672Z,3.10
2022-12-05T04:33:05.010Z,2.63
2022-12-05T04:35:40.789Z,2.80
2022-12-05T04:38:27.865Z,2.63
2022-12-05T04:40:57.211Z,2.50
2022-12-05T04:43:24.940Z,2.90
2022-12-05T04:45:52.382Z,2.83
2022-12-05T04:48:19.219Z,2.60
2022-12-05T04:50:46.752Z,2.55
2022-12-05T04:53:14.220Z,2.67
2022-12-05T04:55:43.060Z,2.55
2022-12-05T04:58:11.300Z,2.60
2022-12-05T05:00:52.859Z,3.03
2022-12-05T05:03:22.315Z,2.80
2022-12-05T05:05:51.048Z,2.55
2022-12-05T05:08:19.307Z,2.50
2022-12-05T05:10:50.900Z,2.47
2022-12-05T05:13:17.481Z,2.45
2022-12-05T05:15:44.259Z,2.85
2022-12-05T05:18:10.886Z,2.45
2022-12-05T05:20:37.420Z,2.80
2022-12-05T05:23:03.979Z,2.80
2022-12-05T05:25:30.524Z,2.42
2022-12-05T05:27:57.287Z,2.70
2022-12-05T05:30:24.539Z,2.47
2022-12-05T05:32:51.052Z,2.70
2022-12-05T05:35:17.625Z,2.58
2022-12-05T05:37:44.277Z,2.63
2022-12-05T05:40:12.351Z,2.63
2022-12-05T05:42:43.821Z,2.70
2022-12-05T05:45:10.809Z,2.40
2022-12-05T05:47:37.429Z,2.95
2022-12-05T05:50:04.405Z,2.75
2022-12-05T05:52:32.712Z,2.53
2022-12-05T05:54:59.306Z,2.15
2022-12-05T05:57:25.907Z,2.42
2022-12-05T05:59:52.527Z,2.47
2022-12-05T06:02:19.192Z,2.28
2022-12-05T06:04:45.793Z,2.53
2022-12-05T06:07:12.466Z,2.47
2022-12-05T06:09:39.121Z,2.58
2022-12-05T06:12:05.826Z,2.65
2022-12-05T06:14:32.546Z,2.50
2022-12-05T06:16:59.148Z,2.72
2022-12-05T06:19:25.786Z,2.50
2022-12-05T06:21:52.348Z,2.90
2022-12-05T06:24:18.955Z,2.35
2022-12-05T06:26:45.566Z,2.58
2022-12-05T06:29:12.147Z,2.30
2022-12-05T06:31:38.910Z,2.33
2022-12-05T06:34:05.486Z,2.38
2022-12-05T06:36:32.262Z,2.45
2022-12-05T06:38:58.986Z,2.38
2022-12-05T06:41:26.466Z,2.30
2022-12-05T06:43:57.367Z,2.47
2022-12-05T06:46:27.005Z,2.53
2022-12-05T06:48:54.046Z,2.40
2022-12-05T06:51:20.606Z,2.55
2022-12-05T06:53:47.127Z,2.60
2022-12-05T06:56:15.524Z,2.90
2022-12-05T06:58:42.718Z,2.95
2022-12-05T07:01:31.600Z,2.20
2022-12-05T07:03:59.266Z,2.40
2022-12-05T07:06:26.305Z,2.65
2022-12-05T07:08:52.927Z,2.90
2022-12-05T07:11:19.890Z,2.70
2022-12-05T07:13:46.747Z,2.38
2022-12-05T07:16:13.388Z,2.97
2022-12-05T07:18:40.167Z,2.60
2022-12-05T07:21:12.499Z,2.58
2022-12-05T07:23:40.247Z,2.70
2022-12-05T07:26:07.647Z,2.88
2022-12-05T07:28:34.523Z,2.70
2022-12-05T07:31:02.188Z,2.97
2022-12-05T07:33:28.968Z,2.78
2022-12-05T07:36:05.907Z,2.83
2022-12-05T07:38:32.577Z,2.85
2022-12-05T07:40:59.147Z,2.90
2022-12-05T07:43:25.813Z,2.90
2022-12-05T07:45:52.349Z,2.97
2022-12-05T07:48:19.259Z,2.60
2022-12-05T07:50:46.008Z,2.67
2022-12-05T07:53:12.886Z,3.13
2022-12-05T07:55:39.502Z,3.28
2022-12-05T07:58:06.406Z,4.07
2022-12-05T08:00:33.006Z,3.28
2022-12-05T08:02:59.634Z,3.22
2022-12-05T08:05:26.366Z,2.90
2022-12-05T08:07:53.039Z,2.78
2022-12-05T08:10:19.666Z,3.10
2022-12-05T08:12:46.326Z,3.08
2022-12-05T08:15:12.845Z,3.47
2022-12-05T08:17:39.483Z,3.20
2022-12-05T08:20:06.366Z,3.45
2022-12-05T08:22:33.027Z,3.75
2022-12-05T08:24:59.585Z,5.03
2022-12-05T08:27:26.144Z,4.60
2022-12-05T08:29:54.185Z,4.35
2022-12-05T08:32:20.746Z,4.97
2022-12-05T08:34:47.465Z,6.13
2022-12-05T08:37:13.987Z,5.72
2022-12-05T08:39:40.625Z,5.70
2022-12-05T08:42:07.265Z,6.20
2022-12-05T08:44:33.885Z,5.80
2022-12-05T08:47:00.465Z,6.10
2022-12-05T08:49:27.150Z,5.97
2022-12-05T08:51:53.851Z,6.20
2022-12-05T08:54:20.448Z,7.03
2022-12-05T08:56:50.075Z,6.28
2022-12-05T08:59:16.666Z,5.22
2022-12-05T09:01:43.239Z,4.88
2022-12-05T09:04:09.947Z,4.22
2022-12-05T09:06:36.775Z,4.25
2022-12-05T09:09:06.069Z,3.65
2022-12-05T09:11:33.705Z,4.13
2022-12-05T09:14:00.885Z,3.97
2022-12-05T09:16:37.126Z,3.60
2022-12-05T09:19:05.775Z,3.92
2022-12-05T09:21:32.327Z,3.65
2022-12-05T09:23:59.325Z,3.65
2022-12-05T09:26:26.546Z,3.58
2022-12-05T09:28:53.465Z,4.25
2022-12-05T09:31:21.513Z,3.88
2022-12-05T09:33:48.705Z,4.00
2022-12-05T09:36:16.716Z,3.80
2022-12-05T09:38:43.585Z,3.58
2022-12-05T09:41:13.016Z,3.90
2022-12-05T09:43:58.911Z,3.88
2022-12-05T09:46:44.351Z,3.55
2022-12-05T09:49:12.068Z,3.47
2022-12-05T09:51:40.805Z,3.83
2022-12-05T09:54:08.926Z,3.80
2022-12-05T09:56:35.644Z,4.03
2022-12-05T09:59:02.271Z,4.13
2022-12-05T10:01:51.390Z,4.80
2022-12-05T10:04:37.459Z,7.97
2022-12-05T10:07:23.165Z,5.43
2022-12-05T10:10:08.807Z,4.13
2022-12-05T10:12:54.308Z,4.15
2022-12-05T10:15:21.006Z,4.53
2022-12-05T10:17:51.267Z,3.97
2022-12-05T10:20:21.033Z,4.55
2022-12-05T10:22:50.295Z,4.32
2022-12-05T10:25:18.999Z,4.50
2022-12-05T10:27:50.804Z,11.48
2022-12-05T10:30:22.011Z,5.55
2022-12-05T10:32:48.477Z,4.60
2022-12-05T10:35:19.798Z,4.43
2022-12-05T10:37:50.898Z,4.50
2022-12-05T10:40:17.818Z,4.25
2022-12-05T10:42:44.479Z,4.45
2022-12-05T10:45:23.697Z,4.45
2022-12-05T10:47:53.570Z,4.15
2022-12-05T10:50:25.351Z,4.30
2022-12-05T10:52:52.552Z,4.03
2022-12-05T10:55:19.118Z,4.25
2022-12-05T10:57:53.215Z,3.90
2022-12-05T11:00:21.079Z,3.70
2022-12-05T11:02:50.949Z,4.25
2022-12-05T11:05:27.140Z,4.13
2022-12-05T11:07:55.338Z,3.97
2022-12-05T11:10:27.226Z,3.97
2022-12-05T11:12:55.810Z,3.95
2022-12-05T11:15:25.630Z,3.13
2022-12-05T11:17:53.367Z,3.90
2022-12-05T11:20:19.909Z,4.50
2022-12-05T11:22:48.831Z,3.92
2022-12-05T11:25:35.156Z,3.75
2022-12-05T11:28:21.927Z,3.47
2022-12-05T11:30:59.230Z,3.70
2022-12-05T11:33:27.803Z,4.07
2022-12-05T11:35:56.029Z,4.20
2022-12-05T11:38:26.068Z,4.18
2022-12-05T11:40:55.638Z,3.10
2022-12-05T11:43:25.271Z,4.18
2022-12-05T11:46:26.876Z,3.35
2022-12-05T11:48:53.567Z,3.90
2022-12-05T11:51:29.955Z,4.55
2022-12-05T11:54:02.198Z,4.25
2022-12-05T11:56:37.051Z,4.18
2022-12-05T11:59:10.149Z,4.15
2022-12-05T12:01:55.212Z,4.30
2022-12-05T12:04:36.792Z,3.88
2022-12-05T12:07:30.495Z,4.00
2022-12-05T12:10:09.626Z,4.65
2022-12-05T12:12:39.378Z,4.07
2022-12-05T12:15:05.817Z,3.72
2022-12-05T12:17:45.855Z,4.45
2022-12-05T12:20:28.717Z,3.92
2022-12-05T12:23:14.049Z,4.15
2022-12-05T12:25:52.984Z,3.45
2022-12-05T12:28:26.678Z,4.20
2022-12-05T12:31:06.407Z,4.28
2022-12-05T12:33:35.264Z,3.83
2022-12-05T12:36:10.607Z,4.18
2022-12-05T12:38:37.109Z,3.80
2022-12-05T12:41:36.059Z,3.85
2022-12-05T12:44:08.588Z,3.97
2022-12-05T12:46:37.759Z,4.00
2022-12-05T12:49:16.076Z,3.75
2022-12-05T12:51:49.998Z,3.67
2022-12-05T12:54:55.188Z,3.40
2022-12-05T12:57:37.649Z,3.83
2022-12-05T13:00:04.887Z,3.35
2022-12-05T13:02:43.449Z,4.32
2022-12-05T13:05:28.607Z,3.92
2022-12-05T13:07:58.474Z,4.32
2022-12-05T13:10:34.892Z,4.40
2022-12-05T13:13:03.778Z,3.88
2022-12-05T13:15:33.218Z,3.78
2022-12-05T13:18:00.097Z,3.92
2022-12-05T13:20:28.436Z,3.97
2022-12-05T13:22:55.130Z,4.03
2022-12-05T13:25:24.708Z,4.03
2022-12-05T13:27:54.067Z,3.95
2022-12-05T13:30:20.748Z,4.30
2022-12-05T13:32:47.250Z,4.53
2022-12-05T13:35:39.668Z,3.85
2022-12-05T13:38:24.518Z,4.15
2022-12-05T13:41:10.528Z,4.00
2022-12-05T13:43:44.954Z,3.28
2022-12-05T13:46:26.371Z,4.35
2022-12-05T13:49:02.106Z,4.00
2022-12-05T13:51:32.857Z,4.50
2022-12-05T13:54:01.627Z,3.75
2022-12-05T13:56:46.078Z,4.07
2022-12-05T13:59:12.749Z,4.07
2022-12-05T14:01:47.594Z,4.28
2022-12-05T14:04:34.486Z,4.03
2022-12-05T14:07:01.009Z,4.28
2022-12-05T14:09:29.087Z,3.88
2022-12-05T14:12:11.236Z,4.32
2022-12-05T14:14:57.263Z,3.70
2022-12-05T14:17:41.287Z,3.65
2022-12-05T14:20:25.366Z,4.05
2022-12-05T14:23:01.155Z,4.30
2022-12-05T14:25:27.589Z,4.50
2022-12-05T14:28:02.205Z,4.00
2022-12-05T14:30:47.267Z,4.22
2022-12-05T14:33:17.902Z,4.00
2022-12-05T14:35:46.308Z,4.40
2022-12-05T14:38:21.559Z,4.63
2022-12-05T14:40:48.319Z,3.95
2022-12-05T14:43:32.042Z,4.60
2022-12-05T14:46:01.168Z,4.43
2022-12-05T14:48:27.770Z,4.40
2022-12-05T14:50:55.337Z,4.65
2022-12-05T14:53:21.798Z,4.38
2022-12-05T14:55:56.390Z,4.68
2022-12-05T14:58:29.102Z,5.45
2022-12-05T15:00:59.869Z,5.57
2022-12-05T15:03:49.447Z,6.25
2022-12-05T15:06:16.068Z,6.25
2022-12-05T15:08:48.937Z,6.45
2022-12-05T15:11:28.426Z,5.35
2022-12-05T15:14:03.818Z,6.13
2022-12-05T15:16:31.688Z,5.40
2022-12-05T15:19:00.979Z,5.22
2022-12-05T15:21:39.517Z,4.75
2022-12-05T15:24:11.888Z,4.38
2022-12-05T15:26:47.709Z,4.75
2022-12-05T15:29:25.573Z,5.10
2022-12-05T15:32:10.631Z,4.40
2022-12-05T15:34:40.350Z,4.18
2022-12-05T15:37:15.597Z,4.78
2022-12-05T15:39:57.147Z,4.78
2022-12-05T15:42:30.163Z,4.10
2022-12-05T15:45:16.638Z,4.13
2022-12-05T15:47:55.138Z,4.57
2022-12-05T15:50:25.477Z,3.90
2022-12-05T15:52:58.198Z,4.03
2022-12-05T15:55:27.932Z,3.97
2022-12-05T15:58:17.403Z,4.30
2022-12-05T16:00:48.660Z,3.80
2022-12-05T16:03:18.050Z,4.35
2022-12-05T16:05:50.822Z,4.05
2022-12-05T16:08:17.712Z,4.20
2022-12-05T16:10:45.870Z,2.90
2022-12-05T16:13:16.356Z,4.40
2022-12-05T16:15:52.087Z,4.75
2022-12-05T16:18:30.272Z,4.68
2022-12-05T16:20:59.991Z,4.15
2022-12-05T16:23:26.700Z,4.00
2022-12-05T16:25:55.569Z,3.10
2022-12-05T16:28:23.051Z,4.40
2022-12-05T16:31:08.124Z,4.05
2022-12-05T16:33:40.204Z,3.97
2022-12-05T16:36:10.627Z,4.32
2022-12-05T16:38:37.677Z,3.80
2022-12-05T16:41:06.038Z,3.90
2022-12-05T16:43:32.711Z,4.15
2022-12-05T16:46:20.583Z,4.05
2022-12-05T16:48:48.690Z,4.13
2022-12-05T16:51:19.750Z,4.00
2022-12-05T16:53:48.458Z,3.45
2022-12-05T16:56:25.499Z,4.07
2022-12-05T16:58:52.298Z,4.00
2022-12-05T17:01:23.900Z,3.95
2022-12-05T17:03:50.589Z,3.80
2022-12-05T17:06:18.472Z,3.92
2022-12-05T17:08:45.005Z,4.07
2022-12-05T17:11:22.089Z,3.70
2022-12-05T17:13:49.316Z,3.40
2022-12-05T17:16:17.353Z,3.70
2022-12-05T17:18:44.414Z,3.88
2022-12-05T17:21:15.077Z,3.65
2022-12-05T17:23:44.544Z,3.90
2022-12-05T17:26:15.041Z,3.63
2022-12-05T17:28:41.559Z,4.03
2022-12-05T17:31:09.968Z,3.30
2022-12-05T17:33:36.768Z,3.35
2022-12-05T17:36:03.632Z,3.25
2022-12-05T17:38:30.139Z,3.67
2022-12-05T17:40:56.760Z,3.10
2022-12-05T17:43:25.249Z,3.15
2022-12-05T17:45:52.727Z,3.38
2022-12-05T17:48:19.228Z,3.58
2022-12-05T17:50:46.899Z,3.42
2022-12-05T17:53:14.367Z,3.55
2022-12-05T17:55:41.407Z,3.65
2022-12-05T17:58:08.246Z,3.40
2022-12-05T18:00:34.769Z,3.20
2022-12-05T18:03:01.320Z,3.33
2022-12-05T18:05:27.948Z,3.33
2022-12-05T18:07:54.545Z,3.60
2022-12-05T18:10:23.490Z,2.95
2022-12-05T18:12:50.533Z,3.75
2022-12-05T18:15:17.408Z,3.90
2022-12-05T18:17:43.929Z,3.60
2022-12-05T18:20:12.328Z,3.30
2022-12-05T18:22:39.628Z,2.95
2022-12-05T18:25:07.375Z,3.80
2022-12-05T18:27:34.744Z,4.93
2022-12-05T18:30:01.389Z,4.38
2022-12-05T18:32:27.937Z,5.78
2022-12-05T18:34:54.458Z,4.95
2022-12-05T18:37:22.395Z,6.80
2022-12-05T18:39:48.937Z,4.78
2022-12-05T18:42:15.676Z,4.32
2022-12-05T18:44:42.268Z,4.43
2022-12-05T18:47:08.846Z,4.88
2022-12-05T18:49:35.390Z,3.72
2022-12-05T18:52:01.829Z,5.80
2022-12-05T18:54:28.358Z,4.60
2022-12-05T18:56:54.868Z,3.85
2022-12-05T18:59:21.899Z,3.80
2022-12-05T19:01:48.886Z,3.92
2022-12-05T19:04:18.058Z,5.05
2022-12-05T19:06:54.871Z,5.45
2022-12-05T19:09:22.206Z,5.80
2022-12-05T19:11:51.524Z,4.80
2022-12-05T19:14:19.405Z,4.60
2022-12-05T19:16:48.134Z,4.15
2022-12-05T19:19:15.157Z,4.43
2022-12-05T19:21:42.613Z,4.78
2022-12-05T19:24:10.928Z,5.45
2022-12-05T19:26:37.585Z,6.32
2022-12-05T19:29:04.314Z,9.13
2022-12-05T19:31:31.674Z,14.55
2022-12-05T19:34:01.847Z,9.63
2022-12-05T19:36:30.170Z,15.20
2022-12-05T19:38:56.765Z,9.52
2022-12-05T19:41:27.147Z,7.47
2022-12-05T19:43:54.596Z,6.05
2022-12-05T19:46:22.515Z,5.32
2022-12-05T19:48:49.145Z,5.38
2022-12-05T19:51:15.623Z,5.10
2022-12-05T19:53:42.655Z,4.68
2022-12-05T19:56:12.846Z,4.47
2022-12-05T19:58:39.477Z,4.15
2022-12-05T20:01:09.873Z,3.70
2022-12-05T20:03:36.495Z,4.15
2022-12-05T20:06:04.595Z,4.13
2022-12-05T20:08:31.766Z,3.88
2022-12-05T20:11:03.302Z,3.60
2022-12-05T20:13:46.887Z,3.85
2022-12-05T20:16:15.034Z,3.55
2022-12-05T20:18:41.634Z,3.80
2022-12-05T20:21:09.930Z,3.53
2022-12-05T20:23:37.051Z,3.90
2022-12-05T20:26:10.995Z,3.25
2022-12-05T20:28:37.915Z,3.78
2022-12-05T20:31:05.345Z,3.33
2022-12-05T20:33:32.017Z,3.95
2022-12-05T20:36:05.815Z,3.03
2022-12-05T20:38:32.406Z,3.70
2022-12-05T20:41:02.956Z,3.10
2022-12-05T20:43:29.546Z,3.50
2022-12-05T20:45:56.600Z,3.72
2022-12-05T20:48:28.205Z,3.63
2022-12-05T20:50:55.756Z,3.05
2022-12-05T20:53:22.926Z,3.65
2022-12-05T20:55:49.935Z,3.30
2022-12-05T20:58:16.466Z,3.67
2022-12-05T21:00:44.043Z,3.58
2022-12-05T21:03:16.850Z,2.78
2022-12-05T21:05:43.775Z,3.60
2022-12-05T21:08:10.408Z,3.13
2022-12-05T21:10:36.998Z,3.30
2022-12-05T21:13:03.531Z,3.72
2022-12-05T21:15:30.057Z,3.10
2022-12-05T21:17:56.605Z,3.40
2022-12-05T21:20:23.175Z,2.88
2022-12-05T21:22:49.695Z,3.70
2022-12-05T21:25:16.425Z,3.60
2022-12-05T21:27:42.895Z,3.22
2022-12-05T21:30:09.685Z,3.15
2022-12-05T21:32:36.156Z,3.35
2022-12-05T21:35:03.505Z,3.47
2022-12-05T21:37:30.005Z,3.55
2022-12-05T21:39:56.713Z,3.20
2022-12-05T21:42:23.444Z,3.35
2022-12-05T21:44:49.955Z,3.60
2022-12-05T21:47:16.425Z,4.90
2022-12-05T21:49:42.957Z,5.82
2022-12-05T21:52:09.415Z,5.55
2022-12-05T21:54:35.885Z,3.97
2022-12-05T21:57:02.374Z,4.10
2022-12-05T21:59:32.345Z,3.33
2022-12-05T22:01:59.433Z,3.40
2022-12-05T22:04:26.035Z,3.35
2022-12-05T22:06:52.567Z,3.38
2022-12-05T22:09:19.075Z,3.80
2022-12-05T22:11:45.774Z,3.17
2022-12-05T22:14:12.314Z,3.10
2022-12-05T22:16:38.874Z,3.22
2022-12-05T22:19:05.405Z,3.45
2022-12-05T22:21:34.118Z,3.20
2022-12-05T22:24:01.115Z,3.30
2022-12-05T22:26:27.860Z,3.90
2022-12-05T22:28:55.020Z,3.10
2022-12-05T22:31:22.199Z,3.08
2022-12-05T22:33:49.160Z,3.28
2022-12-05T22:36:16.892Z,2.70
2022-12-05T22:38:44.560Z,3.65
2022-12-05T22:41:14.329Z,3.30
2022-12-05T22:43:41.335Z,3.28
2022-12-05T22:46:11.900Z,2.97
2022-12-05T22:48:38.936Z,2.72
2022-12-05T22:51:06.185Z,3.35
2022-12-05T22:53:33.418Z,3.30
2022-12-05T22:56:04.196Z,2.90
2022-12-05T22:58:30.707Z,3.45
2022-12-05T23:00:57.276Z,3.30
2022-12-05T23:03:24.020Z,3.20
2022-12-05T23:05:50.555Z,3.30
2022-12-05T23:08:17.126Z,3.00
2022-12-05T23:10:43.766Z,3.15
2022-12-05T23:13:10.334Z,2.20
2022-12-05T23:15:37.284Z,3.10
2022-12-05T23:18:03.950Z,2.92
2022-12-05T23:20:30.514Z,2.78
2022-12-05T23:22:57.404Z,3.30
2022-12-05T23:25:23.905Z,2.72
2022-12-05T23:27:50.393Z,2.80
2022-12-05T23:30:17.067Z,3.33
2022-12-05T23:32:43.545Z,2.97
2022-12-05T23:35:10.999Z,2.60
2022-12-05T23:37:37.543Z,2.72
2022-12-05T23:40:04.783Z,2.53
2022-12-05T23:42:31.641Z,2.85
2022-12-05T23:44:58.198Z,2.70
2022-12-05T23:47:24.692Z,2.45
2022-12-05T23:49:51.114Z,2.72
2022-12-05T23:52:17.567Z,2.70
2022-12-05T23:54:44.023Z,2.58
2022-12-05T23:57:16.054Z,2.53
2022-12-05T23:59:44.118Z,2.42
